createdAt,value
2023-05-21T00:00:13.355Z,36.75
2023-05-21T00:03:16.360Z,35.51
2023-05-21T00:06:21.137Z,35.37
2023-05-21T00:09:24.008Z,35.73
2023-05-21T00:12:26.809Z,35.56
2023-05-21T00:15:29.637Z,35.83
2023-05-21T00:18:34.288Z,35.73
2023-05-21T00:21:39.535Z,35.98
2023-05-21T00:24:42.380Z,35.19
2023-05-21T00:27:45.143Z,35.70
2023-05-21T00:30:47.878Z,36.07
2023-05-21T00:33:50.776Z,35.69
2023-05-21T00:36:55.643Z,35.79
2023-05-21T00:39:58.556Z,33.90
2023-05-21T00:43:01.323Z,33.06
2023-05-21T00:46:04.064Z,33.02
2023-05-21T00:49:06.881Z,32.58
2023-05-21T00:52:11.662Z,32.60
2023-05-21T00:55:14.422Z,32.47
2023-05-21T00:58:18.326Z,32.77
2023-05-21T01:01:21.189Z,32.66
2023-05-21T01:04:24.113Z,32.79
2023-05-21T01:07:28.240Z,32.72
2023-05-21T01:10:31.529Z,32.73
2023-05-21T01:13:37.950Z,32.74
2023-05-21T01:16:42.266Z,32.76
2023-05-21T01:19:45.580Z,32.87
2023-05-21T01:22:52.635Z,32.66
2023-05-21T01:25:55.389Z,32.90
2023-05-21T01:28:58.040Z,33.03
2023-05-21T01:32:04.074Z,33.04
2023-05-21T01:35:09.306Z,33.14
2023-05-21T01:38:17.558Z,32.83
2023-05-21T01:41:21.082Z,32.93
2023-05-21T01:44:25.400Z,33.26
2023-05-21T01:47:31.300Z,33.45
2023-05-21T01:50:35.303Z,33.28
2023-05-21T01:53:40.838Z,33.37
2023-05-21T01:56:43.640Z,33.65
2023-05-21T01:59:47.852Z,33.34
2023-05-21T02:02:50.950Z,33.35
2023-05-21T02:05:55.725Z,33.47
2023-05-21T02:08:59.965Z,33.74
2023-05-21T02:12:02.746Z,33.49
2023-05-21T02:15:06.101Z,33.53
2023-05-21T02:18:09.630Z,33.60
2023-05-21T02:21:12.520Z,33.78
2023-05-21T02:24:16.836Z,33.77
2023-05-21T02:27:19.606Z,33.70
2023-05-21T02:30:22.428Z,33.72
2023-05-21T02:33:26.139Z,33.64
2023-05-21T02:36:28.880Z,33.68
2023-05-21T02:39:33.030Z,33.77
2023-05-21T02:42:36.614Z,33.96
2023-05-21T02:45:39.507Z,33.75
2023-05-21T02:48:42.402Z,33.70
2023-05-21T02:51:45.168Z,33.78
2023-05-21T02:54:49.317Z,33.90
2023-05-21T02:57:52.082Z,33.82
2023-05-21T03:00:54.878Z,34.12
2023-05-21T03:03:57.664Z,33.79
2023-05-21T03:07:02.203Z,33.45
2023-05-21T03:10:06.852Z,33.52
2023-05-21T03:13:09.925Z,33.57
2023-05-21T03:16:12.953Z,33.65
2023-05-21T03:19:16.464Z,33.79
2023-05-21T03:22:20.093Z,33.64
2023-05-21T03:25:25.350Z,33.81
2023-05-21T03:28:28.193Z,33.61
2023-05-21T03:31:31.001Z,34.02
2023-05-21T03:34:35.676Z,34.02
2023-05-21T03:37:38.462Z,34.02
2023-05-21T03:40:42.557Z,33.54
2023-05-21T03:43:45.701Z,33.81
2023-05-21T03:46:48.443Z,33.36
2023-05-21T03:49:51.480Z,33.60
2023-05-21T03:52:54.253Z,33.74
2023-05-21T03:55:58.386Z,33.76
2023-05-21T03:59:01.337Z,33.74
2023-05-21T04:02:04.219Z,33.93
2023-05-21T04:05:07.558Z,33.72
2023-05-21T04:08:10.391Z,33.65
2023-05-21T04:11:14.422Z,33.72
2023-05-21T04:14:17.405Z,33.80
2023-05-21T04:17:21.188Z,33.82
2023-05-21T04:20:24.032Z,33.51
2023-05-21T04:23:26.837Z,33.79
2023-05-21T04:26:34.376Z,35.03
2023-05-21T04:29:37.834Z,33.76
2023-05-21T04:32:40.619Z,33.87
2023-05-21T04:35:44.646Z,33.39
2023-05-21T04:38:48.790Z,33.64
2023-05-21T04:41:54.925Z,33.37
2023-05-21T04:44:59.559Z,33.50
2023-05-21T04:48:03.032Z,33.57
2023-05-21T04:51:06.961Z,33.55
2023-05-21T04:54:09.732Z,33.63
2023-05-21T04:57:13.857Z,33.55
2023-05-21T05:00:17.522Z,33.61
2023-05-21T05:03:20.342Z,33.74
2023-05-21T05:06:25.820Z,33.46
2023-05-21T05:09:30.222Z,33.99
2023-05-21T05:12:34.369Z,33.63
2023-05-21T05:15:37.387Z,33.56
2023-05-21T05:18:40.275Z,33.59
2023-05-21T05:21:43.024Z,33.92
2023-05-21T05:24:45.818Z,34.07
2023-05-21T05:27:49.962Z,33.80
2023-05-21T05:30:52.772Z,33.89
2023-05-21T05:33:59.440Z,34.04
2023-05-21T05:37:03.027Z,33.93
2023-05-21T05:40:06.352Z,34.08
2023-05-21T05:43:10.466Z,33.82
2023-05-21T05:46:13.214Z,33.68
2023-05-21T05:49:16.037Z,33.60
2023-05-21T05:52:18.775Z,33.80
2023-05-21T05:55:22.126Z,33.76
2023-05-21T05:58:26.416Z,33.97
2023-05-21T06:01:29.288Z,33.76
2023-05-21T06:04:32.075Z,34.04
2023-05-21T06:07:34.803Z,33.74
2023-05-21T06:10:37.557Z,33.71
2023-05-21T06:13:41.675Z,33.85
2023-05-21T06:16:44.419Z,33.98
2023-05-21T06:19:47.130Z,33.59
2023-05-21T06:22:49.882Z,33.85
2023-05-21T06:25:52.596Z,34.02
2023-05-21T06:28:56.759Z,33.74
2023-05-21T06:31:59.469Z,33.76
2023-05-21T06:35:02.272Z,33.76
2023-05-21T06:38:05.042Z,33.92
2023-05-21T06:41:07.759Z,33.77
2023-05-21T06:44:11.762Z,33.88
2023-05-21T06:47:14.457Z,34.01
2023-05-21T06:50:17.435Z,34.22
2023-05-21T06:53:20.137Z,34.00
2023-05-21T06:56:22.970Z,33.94
2023-05-21T06:59:27.101Z,33.87
2023-05-21T07:02:30.084Z,34.13
2023-05-21T07:05:32.922Z,34.09
2023-05-21T07:08:35.707Z,33.81
2023-05-21T07:11:38.962Z,33.88
2023-05-21T07:14:43.041Z,34.24
2023-05-21T07:17:45.965Z,34.24
2023-05-21T07:20:48.794Z,33.82
2023-05-21T07:23:51.546Z,34.21
2023-05-21T07:26:54.432Z,34.18
2023-05-21T07:29:58.607Z,33.78
2023-05-21T07:33:01.424Z,34.03
2023-05-21T07:36:04.252Z,33.75
2023-05-21T07:39:06.919Z,33.78
2023-05-21T07:42:09.643Z,34.18
2023-05-21T07:45:13.804Z,33.96
2023-05-21T07:48:16.580Z,33.80
2023-05-21T07:51:19.465Z,33.90
2023-05-21T07:54:22.294Z,33.79
2023-05-21T07:57:25.032Z,33.80
2023-05-21T08:00:29.186Z,33.50
2023-05-21T08:03:32.159Z,33.72
2023-05-21T08:06:35.090Z,33.85
2023-05-21T08:09:37.971Z,33.90
2023-05-21T08:12:40.885Z,34.24
2023-05-21T08:15:44.996Z,34.36
2023-05-21T08:18:47.767Z,34.03
2023-05-21T08:21:52.819Z,34.18
2023-05-21T08:24:55.952Z,34.32
2023-05-21T08:27:58.707Z,34.14
2023-05-21T08:31:03.126Z,34.24
2023-05-21T08:34:05.837Z,33.96
2023-05-21T08:37:08.611Z,34.28
2023-05-21T08:40:12.465Z,34.55
2023-05-21T08:43:16.526Z,34.32
2023-05-21T08:46:22.333Z,34.10
2023-05-21T08:49:27.527Z,34.17
2023-05-21T08:52:30.327Z,33.61
2023-05-21T08:55:33.777Z,34.02
2023-05-21T08:58:37.552Z,33.61
2023-05-21T09:01:43.688Z,33.54
2023-05-21T09:04:49.247Z,33.87
2023-05-21T09:07:56.790Z,34.23
2023-05-21T09:10:59.579Z,33.36
2023-05-21T09:14:02.472Z,33.53
2023-05-21T09:17:06.681Z,33.01
2023-05-21T09:20:12.173Z,33.10
2023-05-21T09:23:18.280Z,32.25
2023-05-21T09:26:22.580Z,32.63
2023-05-21T09:29:26.169Z,32.21
2023-05-21T09:32:30.303Z,33.40
2023-05-21T09:35:36.220Z,34.01
2023-05-21T09:38:40.316Z,33.83
2023-05-21T09:41:43.356Z,34.76
2023-05-21T09:44:46.077Z,34.51
2023-05-21T09:47:50.593Z,35.16
2023-05-21T09:50:53.418Z,35.20
2023-05-21T09:53:58.010Z,34.49
2023-05-21T09:57:01.556Z,34.42
2023-05-21T10:00:06.562Z,37.26
2023-05-21T10:03:11.060Z,36.21
2023-05-21T10:06:15.654Z,37.36
2023-05-21T10:09:20.969Z,37.62
2023-05-21T10:12:24.619Z,38.66
2023-05-21T10:15:29.298Z,39.36
2023-05-21T10:18:34.840Z,38.42
2023-05-21T10:21:40.330Z,38.32
2023-05-21T10:24:44.033Z,39.11
2023-05-21T10:27:47.182Z,38.82
2023-05-21T10:30:50.049Z,39.19
2023-05-21T10:33:54.392Z,38.55
2023-05-21T10:36:58.442Z,38.47
2023-05-21T10:40:01.518Z,40.10
2023-05-21T10:43:23.772Z,40.24
2023-05-21T10:46:37.677Z,40.09
2023-05-21T10:49:49.218Z,41.42
2023-05-21T10:52:57.262Z,40.71
2023-05-21T10:56:06.734Z,41.24
2023-05-21T10:59:15.331Z,42.80
2023-05-21T11:02:19.824Z,41.25
2023-05-21T11:05:39.280Z,41.74
2023-05-21T11:08:48.613Z,42.66
2023-05-21T11:11:51.613Z,42.21
2023-05-21T11:14:57.760Z,42.71
2023-05-21T11:18:00.615Z,43.42
2023-05-21T11:21:06.797Z,43.41
2023-05-21T11:24:11.133Z,44.12
2023-05-21T11:27:14.012Z,44.22
2023-05-21T11:30:17.460Z,44.97
2023-05-21T11:33:20.389Z,45.63
2023-05-21T11:36:24.500Z,45.18
2023-05-21T11:39:27.419Z,45.63
2023-05-21T11:42:33.968Z,45.57
2023-05-21T11:45:41.076Z,45.37
2023-05-21T11:48:45.467Z,45.06
2023-05-21T11:51:49.850Z,44.56
2023-05-21T11:54:55.304Z,44.65
2023-05-21T11:57:59.544Z,45.15
2023-05-21T12:01:02.270Z,45.09
2023-05-21T12:04:05.424Z,44.71
2023-05-21T12:07:10.130Z,46.25
2023-05-21T12:10:13.566Z,45.98
2023-05-21T12:13:16.292Z,46.30
2023-05-21T12:16:19.118Z,45.47
2023-05-21T12:19:22.141Z,45.35
2023-05-21T12:22:28.118Z,45.49
2023-05-21T12:25:32.109Z,45.87
2023-05-21T12:28:34.915Z,45.90
2023-05-21T12:31:48.126Z,45.54
2023-05-21T12:34:51.478Z,46.16
2023-05-21T12:37:55.859Z,46.42
2023-05-21T12:41:04.032Z,45.42
2023-05-21T12:44:08.805Z,45.97
2023-05-21T12:47:11.867Z,46.60
2023-05-21T12:50:14.678Z,46.32
2023-05-21T12:53:18.709Z,45.99
2023-05-21T12:56:21.819Z,45.74
2023-05-21T12:59:24.582Z,45.07
2023-05-21T13:02:28.091Z,46.36
2023-05-21T13:05:32.134Z,46.54
2023-05-21T13:08:36.355Z,46.23
2023-05-21T13:11:39.289Z,46.20
2023-05-21T13:14:42.021Z,47.25
2023-05-21T13:17:44.867Z,46.62
2023-05-21T13:20:47.716Z,46.06
2023-05-21T13:23:51.824Z,46.48
2023-05-21T13:26:54.602Z,46.61
2023-05-21T13:29:57.399Z,45.95
2023-05-21T13:33:00.398Z,46.36
2023-05-21T13:36:05.512Z,46.17
2023-05-21T13:39:09.652Z,45.88
2023-05-21T13:42:12.457Z,46.57
2023-05-21T13:45:16.295Z,46.05
2023-05-21T13:48:21.720Z,46.57
2023-05-21T13:51:38.042Z,45.89
2023-05-21T13:54:43.352Z,45.89
2023-05-21T13:57:46.941Z,46.39
2023-05-21T14:00:49.767Z,46.67
2023-05-21T14:03:52.508Z,46.55
2023-05-21T14:06:55.594Z,46.65
2023-05-21T14:09:59.777Z,46.01
2023-05-21T14:13:11.900Z,46.19
2023-05-21T14:16:23.102Z,46.75
2023-05-21T14:19:26.004Z,46.33
2023-05-21T14:22:28.734Z,45.60
2023-05-21T14:25:32.830Z,45.78
2023-05-21T14:28:36.624Z,45.85
2023-05-21T14:31:39.900Z,46.28
2023-05-21T14:34:42.677Z,46.07
2023-05-21T14:37:45.374Z,46.44
2023-05-21T14:40:49.446Z,45.21
2023-05-21T14:43:52.139Z,45.67
2023-05-21T14:46:54.860Z,45.98
2023-05-21T14:49:57.555Z,44.94
2023-05-21T14:53:00.317Z,45.39
2023-05-21T14:56:04.520Z,44.34
2023-05-21T14:59:07.220Z,45.87
2023-05-21T15:02:09.925Z,46.36
2023-05-21T15:05:12.761Z,45.12
2023-05-21T15:08:15.539Z,45.05
2023-05-21T15:11:19.623Z,45.99
2023-05-21T15:14:22.400Z,45.43
2023-05-21T15:17:25.140Z,45.63
2023-05-21T15:20:27.861Z,45.01
2023-05-21T15:23:30.580Z,45.96
2023-05-21T15:26:34.705Z,45.41
2023-05-21T15:29:37.509Z,45.23
2023-05-21T15:32:40.681Z,44.29
2023-05-21T15:35:43.685Z,44.08
2023-05-21T15:38:46.938Z,44.72
2023-05-21T15:41:52.160Z,44.31
2023-05-21T15:44:54.881Z,44.19
2023-05-21T15:47:57.675Z,44.83
2023-05-21T15:51:00.465Z,44.59
2023-05-21T15:54:05.985Z,44.78
2023-05-21T15:57:10.037Z,44.55
2023-05-21T16:00:13.606Z,44.97
2023-05-21T16:03:16.594Z,44.90
2023-05-21T16:06:19.895Z,45.07
2023-05-21T16:09:22.569Z,44.71
2023-05-21T16:12:27.398Z,45.24
2023-05-21T16:15:32.477Z,45.03
2023-05-21T16:18:35.253Z,45.70
2023-05-21T16:21:37.949Z,46.06
2023-05-21T16:24:40.676Z,46.66
2023-05-21T16:27:44.797Z,46.84
2023-05-21T16:30:47.661Z,47.36
2023-05-21T16:33:50.555Z,46.67
2023-05-21T16:36:53.406Z,47.85
2023-05-21T16:39:56.124Z,48.06
2023-05-21T16:43:02.045Z,47.83
2023-05-21T16:46:05.141Z,47.28
2023-05-21T16:49:07.898Z,47.89
2023-05-21T16:52:10.845Z,48.31
2023-05-21T16:55:17.256Z,48.26
2023-05-21T16:58:22.402Z,47.70
2023-05-21T17:01:25.725Z,47.30
2023-05-21T17:04:28.748Z,47.91
2023-05-21T17:07:32.547Z,47.86
2023-05-21T17:10:35.788Z,47.38
2023-05-21T17:13:41.171Z,46.91
2023-05-21T17:16:44.296Z,46.93
2023-05-21T17:19:47.078Z,47.25
2023-05-21T17:22:49.860Z,47.62
2023-05-21T17:25:53.127Z,47.59
2023-05-21T17:28:57.342Z,47.82
2023-05-21T17:32:00.352Z,48.60
2023-05-21T17:35:03.250Z,49.04
2023-05-21T17:38:05.976Z,49.47
2023-05-21T17:41:08.748Z,49.36
2023-05-21T17:44:13.677Z,49.04
2023-05-21T17:47:16.417Z,49.36
2023-05-21T17:50:19.253Z,48.92
2023-05-21T17:53:22.829Z,49.88
2023-05-21T17:56:26.657Z,49.80
2023-05-21T17:59:30.866Z,51.08
2023-05-21T18:02:33.667Z,50.89
2023-05-21T18:05:36.880Z,50.47
2023-05-21T18:08:39.862Z,50.90
2023-05-21T18:11:43.477Z,52.13
2023-05-21T18:14:47.616Z,51.69
2023-05-21T18:17:50.421Z,51.07
2023-05-21T18:20:54.068Z,51.39
2023-05-21T18:23:56.787Z,50.93
2023-05-21T18:26:59.648Z,51.53
2023-05-21T18:30:06.400Z,51.12
2023-05-21T18:33:11.154Z,51.28
2023-05-21T18:36:13.959Z,51.08
2023-05-21T18:39:16.682Z,50.30
2023-05-21T18:42:27.013Z,51.20
2023-05-21T18:45:31.267Z,51.08
2023-05-21T18:48:34.113Z,51.40
2023-05-21T18:51:36.936Z,51.78
2023-05-21T18:54:39.776Z,51.76
2023-05-21T18:57:42.526Z,51.83
2023-05-21T19:00:46.872Z,50.99
2023-05-21T19:03:49.634Z,51.07
2023-05-21T19:06:52.371Z,51.13
2023-05-21T19:09:56.080Z,50.85
2023-05-21T19:12:58.810Z,50.90
2023-05-21T19:16:03.274Z,50.37
2023-05-21T19:19:06.081Z,50.60
2023-05-21T19:22:08.955Z,50.54
2023-05-21T19:25:11.977Z,50.06
2023-05-21T19:28:14.765Z,50.43
2023-05-21T19:31:18.943Z,51.38
2023-05-21T19:34:22.949Z,51.04
2023-05-21T19:37:26.199Z,50.40
2023-05-21T19:40:29.036Z,50.76
2023-05-21T19:43:32.801Z,51.21
2023-05-21T19:46:37.072Z,50.53
2023-05-21T19:49:40.147Z,50.35
2023-05-21T19:52:42.968Z,49.87
2023-05-21T19:55:46.818Z,49.95
2023-05-21T19:58:49.644Z,49.98
2023-05-21T20:01:53.803Z,50.65
2023-05-21T20:04:57.859Z,50.48
2023-05-21T20:08:00.634Z,49.15
2023-05-21T20:11:04.588Z,50.25
2023-05-21T20:14:07.373Z,49.47
2023-05-21T20:17:11.935Z,50.34
2023-05-21T20:20:14.835Z,50.39
2023-05-21T20:23:17.779Z,50.77
2023-05-21T20:26:21.839Z,51.45
2023-05-21T20:29:24.606Z,50.92
2023-05-21T20:32:28.681Z,50.19
2023-05-21T20:35:31.568Z,50.61
2023-05-21T20:38:36.947Z,51.12
2023-05-21T20:41:39.689Z,50.35
2023-05-21T20:44:45.105Z,50.37
2023-05-21T20:47:50.174Z,50.11
2023-05-21T20:50:53.037Z,50.13
2023-05-21T20:53:55.768Z,49.95
2023-05-21T20:57:00.007Z,49.70
2023-05-21T21:00:02.751Z,50.28
2023-05-21T21:03:10.249Z,49.94
2023-05-21T21:06:13.150Z,50.46
2023-05-21T21:09:17.651Z,50.04
2023-05-21T21:12:25.150Z,51.55
2023-05-21T21:15:29.047Z,51.61
2023-05-21T21:18:33.121Z,51.24
2023-05-21T21:21:36.024Z,51.42
2023-05-21T21:24:38.784Z,51.59
2023-05-21T21:27:42.515Z,51.64
2023-05-21T21:30:45.864Z,51.68
2023-05-21T21:33:50.110Z,51.22
2023-05-21T21:36:52.859Z,50.28
2023-05-21T21:39:55.763Z,51.31
2023-05-21T21:42:58.547Z,50.42
2023-05-21T21:46:01.460Z,51.02
2023-05-21T21:49:05.742Z,51.61
2023-05-21T21:52:08.582Z,51.66
2023-05-21T21:55:12.619Z,51.56
2023-05-21T21:58:15.383Z,50.63
2023-05-21T22:01:18.168Z,51.26
2023-05-21T22:04:23.350Z,50.95
2023-05-21T22:07:26.171Z,50.11
2023-05-21T22:10:28.983Z,50.77
2023-05-21T22:13:31.702Z,51.20
2023-05-21T22:16:34.465Z,50.84
2023-05-21T22:19:38.576Z,50.04
2023-05-21T22:22:41.320Z,50.18
2023-05-21T22:25:44.119Z,50.20
2023-05-21T22:28:46.867Z,50.13
2023-05-21T22:31:50.643Z,50.69
2023-05-21T22:34:54.748Z,49.98
2023-05-21T22:37:58.096Z,49.86
2023-05-21T22:41:01.853Z,49.12
2023-05-21T22:44:04.684Z,50.11
2023-05-21T22:47:09.475Z,49.88
2023-05-21T22:50:13.944Z,45.76
2023-05-21T22:53:17.148Z,44.83
2023-05-21T22:56:19.884Z,44.83
2023-05-21T22:59:22.674Z,44.29
2023-05-21T23:02:25.541Z,44.27
2023-05-21T23:05:29.743Z,44.31
2023-05-21T23:08:32.527Z,43.92
2023-05-21T23:11:35.493Z,43.71
2023-05-21T23:14:38.201Z,44.09
2023-05-21T23:17:41.153Z,44.09
2023-05-21T23:20:45.560Z,43.99
2023-05-21T23:23:48.350Z,43.90
2023-05-21T23:26:51.104Z,44.05
2023-05-21T23:29:53.916Z,43.73
2023-05-21T23:32:57.010Z,43.88
2023-05-21T23:36:01.333Z,43.60
2023-05-21T23:39:04.382Z,43.72
2023-05-21T23:42:07.395Z,43.84
2023-05-21T23:45:10.411Z,43.36
2023-05-21T23:48:13.242Z,43.38
2023-05-21T23:51:19.275Z,43.36
2023-05-21T23:54:22.042Z,43.54
2023-05-21T23:57:24.787Z,43.61
